createdAt,value
2023-01-17T00:02:19.469Z,1.85
2023-01-17T00:05:07.326Z,1.23
2023-01-17T00:07:52.585Z,1.58
2023-01-17T00:10:21.908Z,1.92
2023-01-17T00:12:54.062Z,2.05
2023-01-17T00:15:23.342Z,1.75
2023-01-17T00:17:53.451Z,1.30
2023-01-17T00:20:41.591Z,2.22
2023-01-17T00:23:36.979Z,1.42
2023-01-17T00:26:25.020Z,1.90
2023-01-17T00:28:53.807Z,2.20
2023-01-17T00:31:22.852Z,2.57
2023-01-17T00:33:49.380Z,2.13
2023-01-17T00:36:15.857Z,2.30
2023-01-17T00:38:42.403Z,2.30
2023-01-17T00:41:11.599Z,2.75
2023-01-17T00:43:57.131Z,1.77
2023-01-17T00:46:45.082Z,2.50
2023-01-17T00:49:32.615Z,2.97
2023-01-17T00:52:18.039Z,3.70
2023-01-17T00:55:05.735Z,3.90
2023-01-17T00:57:50.617Z,2.30
2023-01-17T01:00:38.939Z,1.63
2023-01-17T01:03:28.798Z,1.58
2023-01-17T01:06:13.892Z,0.98
2023-01-17T01:08:58.615Z,2.47
2023-01-17T01:11:43.838Z,2.40
2023-01-17T01:14:29.216Z,1.42
2023-01-17T01:17:13.962Z,1.50
2023-01-17T01:20:01.216Z,1.23
2023-01-17T01:22:48.612Z,2.20
2023-01-17T01:25:34.024Z,2.70
2023-01-17T01:28:26.038Z,1.33
2023-01-17T01:31:13.340Z,1.88
2023-01-17T01:33:39.946Z,1.75
2023-01-17T01:36:08.886Z,2.63
2023-01-17T01:38:35.631Z,2.00
2023-01-17T01:41:02.726Z,2.17
2023-01-17T01:43:44.452Z,1.42
2023-01-17T01:46:31.233Z,1.23
2023-01-17T01:49:04.761Z,1.27
2023-01-17T01:51:48.186Z,0.87
2023-01-17T01:54:20.724Z,1.05
2023-01-17T01:56:48.961Z,1.67
2023-01-17T01:59:22.365Z,1.25
2023-01-17T02:01:55.883Z,2.00
2023-01-17T02:04:27.896Z,2.47
2023-01-17T02:07:02.668Z,1.52
2023-01-17T02:09:29.235Z,4.20
2023-01-17T02:12:01.275Z,1.30
2023-01-17T02:14:30.271Z,2.20
2023-01-17T02:17:12.730Z,2.30
2023-01-17T02:20:11.590Z,1.85
2023-01-17T02:23:05.490Z,4.13
2023-01-17T02:25:59.619Z,3.10
2023-01-17T02:28:46.467Z,2.15
2023-01-17T02:31:25.695Z,1.80
2023-01-17T02:34:06.730Z,2.40
2023-01-17T02:36:37.990Z,1.98
2023-01-17T02:39:22.117Z,2.13
2023-01-17T02:42:00.991Z,1.63
2023-01-17T02:44:27.507Z,1.83
2023-01-17T02:46:56.703Z,1.88
2023-01-17T02:49:30.376Z,1.63
2023-01-17T02:52:37.010Z,1.45
2023-01-17T02:55:05.876Z,3.10
2023-01-17T02:57:52.236Z,2.00
2023-01-17T03:00:23.774Z,2.40
2023-01-17T03:02:53.342Z,2.05
2023-01-17T03:05:43.543Z,3.85
2023-01-17T03:08:13.387Z,1.67
2023-01-17T03:10:43.811Z,2.23
2023-01-17T03:13:10.459Z,1.50
2023-01-17T03:15:42.381Z,2.08
2023-01-17T03:18:14.111Z,5.70
2023-01-17T03:20:43.840Z,2.00
2023-01-17T03:23:13.623Z,4.77
2023-01-17T03:25:40.161Z,2.42
2023-01-17T03:28:06.751Z,2.42
2023-01-17T03:30:33.355Z,2.40
2023-01-17T03:33:02.169Z,3.42
2023-01-17T03:35:28.738Z,1.63
2023-01-17T03:37:56.512Z,2.13
2023-01-17T03:40:28.069Z,2.90
2023-01-17T03:42:54.597Z,1.52
2023-01-17T03:45:23.389Z,2.35
2023-01-17T03:47:49.904Z,2.43
2023-01-17T03:50:16.540Z,1.63
2023-01-17T03:52:43.109Z,2.00
2023-01-17T03:55:10.048Z,2.72
2023-01-17T03:57:36.632Z,2.13
2023-01-17T04:00:03.938Z,1.60
2023-01-17T04:02:30.525Z,2.22
2023-01-17T04:04:59.600Z,3.17
2023-01-17T04:07:28.452Z,1.45
2023-01-17T04:09:57.101Z,2.30
2023-01-17T04:12:26.182Z,1.83
2023-01-17T04:14:54.990Z,1.38
2023-01-17T04:17:22.709Z,4.63
2023-01-17T04:19:49.348Z,1.33
2023-01-17T04:22:15.908Z,1.50
2023-01-17T04:24:44.683Z,2.70
2023-01-17T04:27:16.150Z,1.27
2023-01-17T04:29:47.637Z,2.10
2023-01-17T04:32:14.876Z,3.25
2023-01-17T04:34:43.650Z,2.58
2023-01-17T04:37:10.355Z,1.53
2023-01-17T04:39:36.914Z,1.70
2023-01-17T04:42:03.563Z,2.30
2023-01-17T04:44:30.134Z,1.30
2023-01-17T04:46:56.702Z,2.80
2023-01-17T04:49:23.327Z,2.63
2023-01-17T04:51:49.900Z,1.80
2023-01-17T04:54:16.592Z,1.40
2023-01-17T04:56:44.246Z,2.10
2023-01-17T04:59:10.875Z,1.33
2023-01-17T05:01:37.676Z,1.63
2023-01-17T05:04:04.505Z,2.60
2023-01-17T05:06:33.280Z,2.70
2023-01-17T05:08:59.883Z,3.83
2023-01-17T05:11:26.435Z,1.63
2023-01-17T05:13:57.812Z,2.47
2023-01-17T05:16:24.606Z,3.45
2023-01-17T05:18:54.029Z,2.20
2023-01-17T05:21:24.078Z,4.07
2023-01-17T05:23:52.834Z,1.90
2023-01-17T05:26:21.749Z,2.57
2023-01-17T05:28:48.329Z,1.48
2023-01-17T05:31:14.916Z,2.53
2023-01-17T05:33:44.017Z,2.05
2023-01-17T05:36:13.045Z,2.25
2023-01-17T05:38:39.779Z,3.23
2023-01-17T05:41:08.784Z,2.58
2023-01-17T05:43:38.553Z,1.77
2023-01-17T05:46:05.289Z,2.25
2023-01-17T05:48:36.614Z,2.35
2023-01-17T05:51:05.528Z,3.20
2023-01-17T05:53:32.345Z,2.70
2023-01-17T05:56:01.128Z,4.00
2023-01-17T05:58:29.985Z,2.00
2023-01-17T06:00:59.057Z,2.30
2023-01-17T06:03:28.294Z,1.77
2023-01-17T06:05:54.914Z,3.55
2023-01-17T06:08:23.695Z,11.82
2023-01-17T06:10:52.767Z,32.20
2023-01-17T06:13:22.093Z,58.03
2023-01-17T06:15:49.122Z,5.93
2023-01-17T06:18:17.748Z,3.45
2023-01-17T06:20:45.214Z,2.58
2023-01-17T06:23:14.323Z,4.07
2023-01-17T06:25:46.190Z,2.85
2023-01-17T06:28:17.081Z,5.27
2023-01-17T06:30:44.075Z,3.10
2023-01-17T06:33:13.619Z,2.65
2023-01-17T06:35:46.888Z,2.70
2023-01-17T06:38:13.646Z,2.80
2023-01-17T06:40:42.426Z,1.87
2023-01-17T06:43:09.056Z,1.83
2023-01-17T06:45:38.130Z,2.42
2023-01-17T06:48:05.872Z,4.47
2023-01-17T06:50:35.285Z,3.92
2023-01-17T06:53:06.753Z,2.37
2023-01-17T06:55:34.818Z,6.25
2023-01-17T06:58:02.891Z,5.20
2023-01-17T07:00:35.172Z,10.00
2023-01-17T07:03:02.109Z,12.55
2023-01-17T07:05:32.876Z,27.90
2023-01-17T07:07:59.538Z,28.05
2023-01-17T07:10:28.615Z,19.80
2023-01-17T07:12:59.765Z,12.23
2023-01-17T07:15:31.155Z,14.48
2023-01-17T07:18:01.207Z,7.67
2023-01-17T07:20:27.865Z,3.75
2023-01-17T07:22:54.455Z,5.50
2023-01-17T07:25:23.372Z,4.90
2023-01-17T07:27:53.577Z,4.75
2023-01-17T07:30:22.674Z,4.73
2023-01-17T07:32:55.250Z,4.30
2023-01-17T07:35:23.196Z,6.80
2023-01-17T07:37:50.718Z,12.27
2023-01-17T07:40:21.265Z,18.63
2023-01-17T07:42:48.365Z,9.83
2023-01-17T07:45:16.328Z,7.03
2023-01-17T07:47:42.893Z,6.00
2023-01-17T07:50:10.219Z,15.18
2023-01-17T07:52:36.744Z,7.43
2023-01-17T07:55:03.509Z,8.93
2023-01-17T07:57:34.589Z,8.35
2023-01-17T08:00:01.229Z,7.90
2023-01-17T08:02:27.797Z,6.28
2023-01-17T08:04:54.329Z,6.85
2023-01-17T08:07:23.311Z,7.53
2023-01-17T08:09:50.464Z,6.95
2023-01-17T08:12:17.600Z,8.63
2023-01-17T08:14:46.900Z,9.77
2023-01-17T08:17:21.811Z,6.35
2023-01-17T08:19:52.244Z,10.77
2023-01-17T08:22:19.582Z,8.20
2023-01-17T08:24:46.138Z,9.18
2023-01-17T08:27:17.160Z,10.02
2023-01-17T08:29:48.385Z,8.40
2023-01-17T08:32:21.370Z,72.87
2023-01-17T08:34:47.917Z,77.05
2023-01-17T08:37:16.645Z,38.42
2023-01-17T08:39:45.657Z,45.88
2023-01-17T08:42:12.202Z,20.38
2023-01-17T08:44:39.790Z,12.23
2023-01-17T08:47:06.421Z,13.88
2023-01-17T08:49:33.001Z,10.57
2023-01-17T08:52:01.769Z,8.23
2023-01-17T08:54:28.997Z,7.32
2023-01-17T08:56:57.843Z,7.67
2023-01-17T08:59:24.461Z,8.50
2023-01-17T09:01:52.600Z,9.23
2023-01-17T09:04:21.885Z,6.82
2023-01-17T09:06:48.917Z,4.78
2023-01-17T09:09:16.937Z,5.03
2023-01-17T09:11:43.502Z,3.35
2023-01-17T09:14:12.679Z,7.80
2023-01-17T09:16:42.257Z,6.82
2023-01-17T09:19:11.113Z,7.50
2023-01-17T09:21:37.647Z,7.43
2023-01-17T09:24:04.253Z,7.03
2023-01-17T09:26:31.159Z,6.30
2023-01-17T09:29:00.137Z,9.68
2023-01-17T09:31:28.963Z,5.05
2023-01-17T09:33:57.176Z,4.50
2023-01-17T09:36:24.465Z,5.65
2023-01-17T09:38:56.808Z,4.53
2023-01-17T09:41:29.080Z,6.30
2023-01-17T09:44:02.768Z,5.00
2023-01-17T09:46:32.280Z,7.53
2023-01-17T09:49:09.544Z,6.50
2023-01-17T09:51:36.920Z,6.88
2023-01-17T09:54:03.740Z,7.75
2023-01-17T09:56:46.783Z,5.25
2023-01-17T09:59:19.400Z,6.20
2023-01-17T10:02:10.718Z,8.43
2023-01-17T10:05:16.262Z,8.65
2023-01-17T10:07:42.835Z,5.43
2023-01-17T10:10:30.704Z,4.35
2023-01-17T10:13:15.304Z,4.33
2023-01-17T10:16:00.817Z,4.65
2023-01-17T10:18:30.760Z,5.13
2023-01-17T10:21:06.269Z,4.80
2023-01-17T10:23:46.936Z,5.90
2023-01-17T10:26:22.261Z,6.13
2023-01-17T10:28:51.651Z,4.80
2023-01-17T10:31:29.950Z,6.28
2023-01-17T10:34:25.404Z,3.90
2023-01-17T10:37:04.097Z,5.13
2023-01-17T10:39:31.237Z,3.37
2023-01-17T10:42:03.408Z,4.25
2023-01-17T10:44:43.451Z,3.60
2023-01-17T10:47:09.919Z,3.88
2023-01-17T10:49:44.101Z,3.92
2023-01-17T10:52:29.556Z,4.80
2023-01-17T10:55:30.271Z,6.72
2023-01-17T10:57:58.185Z,3.90
2023-01-17T11:00:46.747Z,3.65
2023-01-17T11:03:17.794Z,3.15
2023-01-17T11:06:04.363Z,5.90
2023-01-17T11:08:53.519Z,3.47
2023-01-17T11:11:24.831Z,4.78
2023-01-17T11:13:54.632Z,3.75
2023-01-17T11:16:27.434Z,4.95
2023-01-17T11:19:18.416Z,3.00
2023-01-17T11:21:56.138Z,4.00
2023-01-17T11:24:40.658Z,4.57
2023-01-17T11:27:23.456Z,3.55
2023-01-17T11:30:15.859Z,3.58
2023-01-17T11:32:57.656Z,3.23
2023-01-17T11:35:44.384Z,4.70
2023-01-17T11:38:19.027Z,3.33
2023-01-17T11:40:48.000Z,3.08
2023-01-17T11:43:30.269Z,3.50
2023-01-17T11:46:17.951Z,5.53
2023-01-17T11:48:51.283Z,4.68
2023-01-17T11:51:33.137Z,2.50
2023-01-17T11:54:25.895Z,3.33
2023-01-17T11:57:04.516Z,2.75
2023-01-17T11:59:35.221Z,3.40
2023-01-17T12:02:23.995Z,2.45
2023-01-17T12:05:02.516Z,3.35
2023-01-17T12:07:38.013Z,3.78
2023-01-17T12:10:26.091Z,3.10
2023-01-17T12:13:32.795Z,2.93
2023-01-17T12:16:27.406Z,3.35
2023-01-17T12:19:05.790Z,3.92
2023-01-17T12:22:08.801Z,4.10
2023-01-17T12:24:45.331Z,3.67
2023-01-17T12:27:37.978Z,3.03
2023-01-17T12:30:39.525Z,4.10
2023-01-17T12:33:27.248Z,6.22
2023-01-17T12:35:58.539Z,3.50
2023-01-17T12:38:41.351Z,3.42
2023-01-17T12:41:23.003Z,4.03
2023-01-17T12:43:54.084Z,4.00
2023-01-17T12:46:28.480Z,4.38
2023-01-17T12:49:02.907Z,4.47
2023-01-17T12:51:39.201Z,4.05
2023-01-17T12:54:20.082Z,3.40
2023-01-17T12:56:52.520Z,4.40
2023-01-17T12:59:32.707Z,5.70
2023-01-17T13:02:10.943Z,5.93
2023-01-17T13:04:58.362Z,6.30
2023-01-17T13:07:48.566Z,4.93
2023-01-17T13:10:18.012Z,3.67
2023-01-17T13:12:48.962Z,4.35
2023-01-17T13:15:23.385Z,4.32
2023-01-17T13:17:56.488Z,4.32
2023-01-17T13:20:26.830Z,3.80
2023-01-17T13:22:59.439Z,5.15
2023-01-17T13:25:31.953Z,4.10
2023-01-17T13:28:00.769Z,4.50
2023-01-17T13:30:50.605Z,5.20
2023-01-17T13:33:40.935Z,5.83
2023-01-17T13:36:20.159Z,4.60
2023-01-17T13:39:13.683Z,5.15
2023-01-17T13:41:45.562Z,6.07
2023-01-17T13:44:24.394Z,3.17
2023-01-17T13:47:01.286Z,6.87
2023-01-17T13:49:34.135Z,6.75
2023-01-17T13:52:03.466Z,4.38
2023-01-17T13:54:42.295Z,6.50
2023-01-17T13:57:29.571Z,7.90
2023-01-17T14:00:00.683Z,5.57
2023-01-17T14:02:35.865Z,5.60
2023-01-17T14:05:21.369Z,6.38
2023-01-17T14:07:49.656Z,7.57
2023-01-17T14:10:38.235Z,5.25
2023-01-17T14:13:24.483Z,5.83
2023-01-17T14:15:55.572Z,6.20
2023-01-17T14:18:55.420Z,5.65
2023-01-17T14:21:25.965Z,5.82
2023-01-17T14:24:04.135Z,5.00
2023-01-17T14:26:43.215Z,5.13
2023-01-17T14:29:47.287Z,6.40
2023-01-17T14:32:22.110Z,5.65
2023-01-17T14:34:52.044Z,7.00
2023-01-17T14:37:29.600Z,6.00
2023-01-17T14:40:01.946Z,4.33
2023-01-17T14:42:33.506Z,4.72
2023-01-17T14:45:09.251Z,4.90
2023-01-17T14:47:41.540Z,5.60
2023-01-17T14:50:27.371Z,5.03
2023-01-17T14:53:29.999Z,4.13
2023-01-17T14:56:17.735Z,6.00
2023-01-17T14:58:46.585Z,4.82
2023-01-17T15:01:19.390Z,4.60
2023-01-17T15:03:51.537Z,4.35
2023-01-17T15:06:20.360Z,5.03
2023-01-17T15:08:48.298Z,4.03
2023-01-17T15:11:22.404Z,4.65
2023-01-17T15:13:51.669Z,5.57
2023-01-17T15:16:18.148Z,5.45
2023-01-17T15:18:44.770Z,5.67
2023-01-17T15:21:19.314Z,5.60
2023-01-17T15:23:55.400Z,6.30
2023-01-17T15:26:25.284Z,34.25
2023-01-17T15:28:55.330Z,15.23
2023-01-17T15:31:39.140Z,16.47
2023-01-17T15:34:08.116Z,19.20
2023-01-17T15:36:35.640Z,25.00
2023-01-17T15:39:08.555Z,26.45
2023-01-17T15:41:41.863Z,19.85
2023-01-17T15:44:23.898Z,10.47
2023-01-17T15:46:50.478Z,11.48
2023-01-17T15:49:22.851Z,12.98
2023-01-17T15:51:52.246Z,12.27
2023-01-17T15:54:27.085Z,17.73
2023-01-17T15:57:26.351Z,7.30
2023-01-17T16:00:06.948Z,7.68
2023-01-17T16:02:37.880Z,8.68
2023-01-17T16:05:30.939Z,9.13
2023-01-17T16:08:04.323Z,7.18
2023-01-17T16:10:36.399Z,8.77
2023-01-17T16:13:05.392Z,7.95
2023-01-17T16:15:36.061Z,7.53
2023-01-17T16:18:03.836Z,7.43
2023-01-17T16:20:44.833Z,9.27
2023-01-17T16:23:11.728Z,7.50
2023-01-17T16:25:38.449Z,8.00
2023-01-17T16:28:07.369Z,7.80
2023-01-17T16:30:33.985Z,7.30
2023-01-17T16:33:03.651Z,8.55
2023-01-17T16:35:35.508Z,9.43
2023-01-17T16:38:05.541Z,7.28
2023-01-17T16:40:38.915Z,8.00
2023-01-17T16:43:05.480Z,11.85
2023-01-17T16:45:40.328Z,14.90
2023-01-17T16:48:12.619Z,13.10
2023-01-17T16:50:53.355Z,13.75
2023-01-17T16:53:24.310Z,14.18
2023-01-17T16:55:53.855Z,11.00
2023-01-17T16:58:22.897Z,11.15
2023-01-17T17:00:49.457Z,10.97
2023-01-17T17:03:23.282Z,11.18
2023-01-17T17:05:58.372Z,9.65
2023-01-17T17:08:24.973Z,8.68
2023-01-17T17:10:51.966Z,8.57
2023-01-17T17:13:18.519Z,10.27
2023-01-17T17:15:47.483Z,10.88
2023-01-17T17:18:17.644Z,9.43
2023-01-17T17:20:45.083Z,7.65
2023-01-17T17:23:14.832Z,7.65
2023-01-17T17:25:43.652Z,8.63
2023-01-17T17:28:11.081Z,11.15
2023-01-17T17:30:37.596Z,13.27
2023-01-17T17:33:06.600Z,12.88
2023-01-17T17:35:38.257Z,11.85
2023-01-17T17:38:07.137Z,11.53
2023-01-17T17:40:35.578Z,12.60
2023-01-17T17:43:02.439Z,20.38
2023-01-17T17:45:28.970Z,18.73
2023-01-17T17:47:55.606Z,18.90
2023-01-17T17:50:22.135Z,14.50
2023-01-17T17:52:48.951Z,13.27
2023-01-17T17:55:20.450Z,16.60
2023-01-17T17:57:47.020Z,19.58
2023-01-17T18:00:16.615Z,21.00
2023-01-17T18:02:45.489Z,17.53
2023-01-17T18:05:12.022Z,17.02
2023-01-17T18:07:41.553Z,15.60
2023-01-17T18:10:08.648Z,13.45
2023-01-17T18:12:35.211Z,14.93
2023-01-17T18:15:04.527Z,15.23
2023-01-17T18:17:33.397Z,14.38
2023-01-17T18:20:07.507Z,14.63
2023-01-17T18:22:34.500Z,13.02
2023-01-17T18:25:01.085Z,14.07
2023-01-17T18:27:27.647Z,14.13
2023-01-17T18:29:59.201Z,11.77
2023-01-17T18:32:25.845Z,14.80
2023-01-17T18:34:54.961Z,16.35
2023-01-17T18:37:24.508Z,16.10
2023-01-17T18:39:56.078Z,14.53
2023-01-17T18:42:23.651Z,13.90
2023-01-17T18:44:50.174Z,15.10
2023-01-17T18:47:19.078Z,15.10
2023-01-17T18:49:45.635Z,16.88
2023-01-17T18:52:12.165Z,15.00
2023-01-17T18:54:41.364Z,14.10
2023-01-17T18:57:13.028Z,13.55
2023-01-17T18:59:39.564Z,13.85
2023-01-17T19:02:08.915Z,14.57
2023-01-17T19:04:37.782Z,12.87
2023-01-17T19:07:04.375Z,12.50
2023-01-17T19:09:32.348Z,12.48
2023-01-17T19:12:00.065Z,13.15
2023-01-17T19:14:31.184Z,11.95
2023-01-17T19:16:57.783Z,13.73
2023-01-17T19:19:26.614Z,10.75
2023-01-17T19:21:55.432Z,12.10
2023-01-17T19:24:24.944Z,11.30
2023-01-17T19:26:54.093Z,12.63
2023-01-17T19:29:23.918Z,13.60
2023-01-17T19:31:55.901Z,13.40
2023-01-17T19:34:22.925Z,14.23
2023-01-17T19:36:53.183Z,13.45
2023-01-17T19:39:25.347Z,14.30
2023-01-17T19:41:51.963Z,16.23
2023-01-17T19:44:20.758Z,17.20
2023-01-17T19:46:47.524Z,17.85
2023-01-17T19:49:16.326Z,16.08
2023-01-17T19:51:43.783Z,16.70
2023-01-17T19:54:15.179Z,16.47
2023-01-17T19:56:46.268Z,16.42
2023-01-17T19:59:15.424Z,15.95
2023-01-17T20:01:46.649Z,15.13
2023-01-17T20:04:18.045Z,16.77
2023-01-17T20:06:46.091Z,16.30
2023-01-17T20:09:15.609Z,16.48
2023-01-17T20:11:42.342Z,15.15
2023-01-17T20:14:13.443Z,15.50
2023-01-17T20:16:43.611Z,16.48
2023-01-17T20:19:15.406Z,14.40
2023-01-17T20:21:46.686Z,16.88
2023-01-17T20:24:14.300Z,17.92
2023-01-17T20:26:41.328Z,16.85
2023-01-17T20:29:14.282Z,17.10
2023-01-17T20:31:44.598Z,15.87
2023-01-17T20:34:13.498Z,17.02
2023-01-17T20:36:42.540Z,15.93
2023-01-17T20:39:15.943Z,17.02
2023-01-17T20:41:43.959Z,17.55
2023-01-17T20:44:15.668Z,17.40
2023-01-17T20:46:42.737Z,16.42
2023-01-17T20:49:17.104Z,15.98
2023-01-17T20:51:47.267Z,14.90
2023-01-17T20:54:18.515Z,15.65
2023-01-17T20:56:48.153Z,15.43
2023-01-17T20:59:19.756Z,20.27
2023-01-17T21:01:49.696Z,16.05
2023-01-17T21:04:17.996Z,19.10
2023-01-17T21:06:44.704Z,19.38
2023-01-17T21:09:17.232Z,18.83
2023-01-17T21:11:46.052Z,15.35
2023-01-17T21:14:12.616Z,16.75
2023-01-17T21:16:44.712Z,17.13
2023-01-17T21:19:14.367Z,19.20
2023-01-17T21:21:40.967Z,17.10
2023-01-17T21:24:09.964Z,17.50
2023-01-17T21:26:39.894Z,17.95
2023-01-17T21:29:07.175Z,17.38
2023-01-17T21:31:36.820Z,19.17
2023-01-17T21:34:05.923Z,17.80
2023-01-17T21:36:42.331Z,18.30
2023-01-17T21:39:19.820Z,19.83
2023-01-17T21:41:50.733Z,19.27
2023-01-17T21:44:25.970Z,18.08
2023-01-17T21:46:59.844Z,16.93
2023-01-17T21:49:31.203Z,17.30
2023-01-17T21:51:57.735Z,17.45
2023-01-17T21:54:49.145Z,18.60
2023-01-17T21:57:38.494Z,16.60
2023-01-17T22:00:10.479Z,15.03
2023-01-17T22:02:37.131Z,17.35
2023-01-17T22:05:03.880Z,16.02
2023-01-17T22:07:30.430Z,15.85
2023-01-17T22:09:59.339Z,17.42
2023-01-17T22:12:26.297Z,17.57
2023-01-17T22:14:53.550Z,17.48
2023-01-17T22:17:21.047Z,18.35
2023-01-17T22:19:50.072Z,16.40
2023-01-17T22:22:16.648Z,16.45
2023-01-17T22:24:43.238Z,18.90
2023-01-17T22:27:13.624Z,19.60
2023-01-17T22:29:40.271Z,16.92
2023-01-17T22:32:06.839Z,17.33
2023-01-17T22:34:33.405Z,18.13
2023-01-17T22:37:00.557Z,19.57
2023-01-17T22:39:31.899Z,18.85
2023-01-17T22:41:58.704Z,18.85
2023-01-17T22:44:25.312Z,17.52
2023-01-17T22:46:54.198Z,19.27
2023-01-17T22:49:23.419Z,18.67
2023-01-17T22:51:52.657Z,17.02
2023-01-17T22:54:21.512Z,16.33
2023-01-17T22:56:50.506Z,16.92
2023-01-17T22:59:17.093Z,18.52
2023-01-17T23:01:45.969Z,18.70
2023-01-17T23:04:14.510Z,19.73
2023-01-17T23:06:41.654Z,17.83
2023-01-17T23:09:10.683Z,20.13
2023-01-17T23:11:47.392Z,17.95
2023-01-17T23:14:21.044Z,16.13
2023-01-17T23:17:10.696Z,18.60
2023-01-17T23:19:44.761Z,17.55
2023-01-17T23:22:19.354Z,21.73
2023-01-17T23:24:54.381Z,19.33
2023-01-17T23:27:56.033Z,18.23
2023-01-17T23:30:37.330Z,17.63
2023-01-17T23:33:13.304Z,16.00
2023-01-17T23:35:44.257Z,19.15
2023-01-17T23:38:29.960Z,16.25
2023-01-17T23:41:23.718Z,16.53
2023-01-17T23:43:58.979Z,15.10
2023-01-17T23:46:26.910Z,17.00
2023-01-17T23:48:54.955Z,19.42
2023-01-17T23:51:26.239Z,18.27
2023-01-17T23:53:57.287Z,17.00
2023-01-17T23:56:26.180Z,20.65
2023-01-17T23:58:54.788Z,25.10
